Time;durP1;ratioP1;P1;durP2;ratioP2;P2;SDS_P1;SDS_P2;PMS_P1;PMS_P2;Temp;Humidity;BMP_temperature;BMP_pressure;BME280_temperature;BME280_humidity;BME280_pressure;Samples;Min_cycle;Max_cycle;Signal;HPM_P1;HPM_P2
2023/01/13 00:01:14;;;;;;;21.50;4.90;;;9.20;99.90;;;;;;5072569;28;20186;-52
2023/01/13 00:03:40;;;;;;;14.60;4.75;;;9.20;99.90;;;;;;5072454;28;20210;-51
2023/01/13 00:06:07;;;;;;;17.30;4.93;;;9.10;99.90;;;;;;5072566;28;20217;-52
2023/01/13 00:08:33;;;;;;;13.13;4.45;;;9.00;99.90;;;;;;5072368;28;20163;-54
2023/01/13 00:10:58;;;;;;;17.92;4.95;;;9.10;99.90;;;;;;5072354;28;20605;-53
2023/01/13 00:13:27;;;;;;;16.83;4.82;;;9.10;99.90;;;;;;5072409;28;20182;-53
2023/01/13 00:16:00;;;;;;;15.38;4.20;;;9.00;99.90;;;;;;5072568;28;20182;-53
2023/01/13 00:18:26;;;;;;;16.10;4.60;;;9.00;99.90;;;;;;5072428;28;20167;-52
2023/01/13 00:21:00;;;;;;;21.25;5.53;;;9.00;99.90;;;;;;5073405;28;20251;-53
2023/01/13 00:23:28;;;;;;;21.33;5.43;;;9.10;99.90;;;;;;5076357;28;20179;-54
2023/01/13 00:25:57;;;;;;;22.17;5.60;;;8.90;99.90;;;;;;5076300;28;20183;-53
2023/01/13 00:28:24;;;;;;;20.88;5.65;;;8.80;99.90;;;;;;5076176;28;20171;-55
2023/01/13 00:30:50;;;;;;;25.08;5.75;;;8.80;99.90;;;;;;5076085;28;20253;-50
2023/01/13 00:33:15;;;;;;;17.40;5.43;;;8.90;99.90;;;;;;5076342;28;20209;-53
2023/01/13 00:35:41;;;;;;;24.17;6.20;;;8.80;99.90;;;;;;5075798;28;20202;-54
2023/01/13 00:38:07;;;;;;;23.25;6.40;;;8.80;99.90;;;;;;5076179;28;20703;-51
2023/01/13 00:40:32;;;;;;;22.50;6.13;;;8.70;99.90;;;;;;5076099;28;20632;-51
2023/01/13 00:45:43;;;;;;;27.25;6.07;;;8.70;99.90;;;;;;5075803;28;20571;-51
2023/01/13 00:48:09;;;;;;;22.45;6.47;;;8.80;99.90;;;;;;5075691;28;20181;-53
2023/01/13 00:50:34;;;;;;;24.85;6.60;;;8.70;99.90;;;;;;5075999;28;20257;-52
2023/01/13 00:53:00;;;;;;;22.02;6.57;;;8.70;99.90;;;;;;5075828;28;20171;-51
2023/01/13 00:55:26;;;;;;;23.20;5.97;;;8.80;99.90;;;;;;5075736;28;20585;-51
2023/01/13 00:57:52;;;;;;;23.27;5.60;;;8.70;99.90;;;;;;5076010;28;20278;-54
2023/01/13 01:00:18;;;;;;;24.75;5.97;;;8.70;99.90;;;;;;5075651;28;20182;-55
2023/01/13 01:02:44;;;;;;;20.27;6.22;;;8.70;99.90;;;;;;5075493;28;20171;-54
2023/01/13 01:05:10;;;;;;;22.70;6.07;;;8.70;99.90;;;;;;5075590;28;20716;-54
2023/01/13 01:07:35;;;;;;;24.60;6.13;;;8.80;99.90;;;;;;5057545;28;20580;-50
2023/01/13 01:10:02;;;;;;;23.20;6.07;;;8.70;99.90;;;;;;5075503;28;20225;-53
2023/01/13 01:12:27;;;;;;;20.27;6.05;;;8.60;99.90;;;;;;5075320;28;20624;-53
2023/01/13 01:14:53;;;;;;;24.77;5.47;;;8.60;99.90;;;;;;5075858;28;20185;-52
2023/01/13 01:17:19;;;;;;;20.48;5.53;;;8.50;99.90;;;;;;5075705;28;20213;-51
2023/01/13 01:19:44;;;;;;;24.55;5.85;;;8.60;99.90;;;;;;5075966;28;20170;-53
2023/01/13 01:22:10;;;;;;;21.13;5.55;;;8.60;99.90;;;;;;5057974;28;20543;-52
2023/01/13 01:24:36;;;;;;;19.15;5.40;;;8.60;99.90;;;;;;5075715;28;20203;-51
2023/01/13 01:27:01;;;;;;;21.85;5.68;;;8.60;99.90;;;;;;5075748;28;20178;-54
2023/01/13 01:29:27;;;;;;;21.55;5.15;;;8.60;99.90;;;;;;5087732;28;20185;-51
2023/01/13 01:31:53;;;;;;;19.25;5.90;;;8.70;99.90;;;;;;5077510;28;20178;-53
2023/01/13 01:34:18;;;;;;;20.33;5.32;;;8.60;99.90;;;;;;5095562;28;20648;-50
2023/01/13 01:36:44;;;;;;;16.90;5.45;;;8.60;99.90;;;;;;5096146;28;20219;-53
2023/01/13 01:39:10;;;;;;;19.75;5.55;;;8.50;99.90;;;;;;5095503;28;20173;-54
2023/01/13 01:41:36;;;;;;;20.88;5.65;;;8.50;99.90;;;;;;5095701;28;20183;-53
2023/01/13 01:44:28;;;;;;;23.30;5.95;;;8.50;99.90;;;;;;5095706;28;20288;-53
2023/01/13 01:46:55;;;;;;;20.90;5.18;;;8.50;99.90;;;;;;5044112;28;20197;-53
2023/01/13 01:49:30;;;;;;;21.08;5.30;;;8.50;99.90;;;;;;5095508;28;20646;-50
2023/01/13 01:52:34;;;;;;;20.98;5.80;;;8.50;99.90;;;;;;5095570;28;20184;-53
2023/01/13 01:55:09;;;;;;;24.52;5.55;;;8.60;99.90;;;;;;4993606;28;20189;-53
2023/01/13 01:57:53;;;;;;;23.33;5.60;;;8.70;99.90;;;;;;5080600;28;20185;-53
2023/01/13 02:00:19;;;;;;;19.73;5.32;;;8.70;99.90;;;;;;5095382;28;20174;-53
2023/01/13 02:02:48;;;;;;;23.33;5.28;;;8.70;99.90;;;;;;5095244;28;20526;-52
2023/01/13 02:05:15;;;;;;;21.35;5.35;;;8.80;99.90;;;;;;5095021;28;20553;-54
2023/01/13 02:07:43;;;;;;;17.58;4.93;;;8.70;99.90;;;;;;5095320;28;20307;-55
2023/01/13 02:10:12;;;;;;;19.08;4.45;;;8.80;99.90;;;;;;5095130;28;20185;-53
2023/01/13 02:12:40;;;;;;;18.23;5.03;;;8.90;99.90;;;;;;5095031;28;20633;-54
2023/01/13 02:15:12;;;;;;;17.85;4.80;;;8.80;99.90;;;;;;5094959;28;20201;-53
2023/01/13 02:18:12;;;;;;;20.27;4.80;;;8.80;99.90;;;;;;5094834;28;20170;-52
2023/01/13 02:20:54;;;;;;;20.60;4.47;;;8.80;99.90;;;;;;5094727;28;20174;-51
2023/01/13 02:26:33;;;;;;;16.85;5.22;;;8.80;99.90;;;;;;5094750;28;20197;-50
2023/01/13 02:32:11;;;;;;;16.88;4.78;;;8.90;99.90;;;;;;5094925;28;20242;-51
2023/01/13 02:34:43;;;;;;;16.95;4.72;;;9.00;99.90;;;;;;5094942;28;20170;-52
2023/01/13 02:37:20;;;;;;;22.13;5.30;;;9.10;99.90;;;;;;5094764;28;20219;-52
2023/01/13 02:39:55;;;;;;;21.42;4.93;;;9.10;99.90;;;;;;5094547;28;20166;-52
2023/01/13 02:45:25;;;;;;;18.77;4.75;;;9.10;99.90;;;;;;5093549;28;20212;-54
2023/01/13 02:47:54;;;;;;;18.00;4.82;;;9.00;99.90;;;;;;5094447;28;20178;-50
2023/01/13 02:50:38;;;;;;;16.30;4.63;;;9.10;99.90;;;;;;5076846;28;20210;-51
2023/01/13 02:53:27;;;;;;;18.73;4.70;;;9.20;99.90;;;;;;5094250;28;20161;-51
2023/01/13 02:55:55;;;;;;;20.33;4.43;;;9.20;99.90;;;;;;5094380;28;20632;-55
2023/01/13 02:58:26;;;;;;;14.55;4.05;;;9.20;99.90;;;;;;5094237;28;20170;-53
2023/01/13 03:00:52;;;;;;;20.98;5.00;;;9.10;99.90;;;;;;5094166;28;20170;-52
2023/01/13 03:03:17;;;;;;;16.38;4.13;;;9.00;99.90;;;;;;5094109;28;20171;-54
2023/01/13 03:05:46;;;;;;;19.27;4.45;;;8.90;99.90;;;;;;5076252;28;20198;-52
2023/01/13 03:08:26;;;;;;;18.73;4.75;;;8.80;99.90;;;;;;5094221;28;20248;-53
2023/01/13 03:11:10;;;;;;;20.08;4.60;;;8.70;99.90;;;;;;5094114;28;20177;-53
2023/01/13 03:14:11;;;;;;;15.45;3.95;;;8.90;99.90;;;;;;5094237;28;20312;-53
2023/01/13 03:16:48;;;;;;;16.60;3.85;;;8.70;99.90;;;;;;5093876;28;20208;-50
2023/01/13 03:19:31;;;;;;;13.10;3.65;;;8.60;99.90;;;;;;5093961;28;20661;-53
2023/01/13 03:22:42;;;;;;;15.10;4.15;;;8.60;99.90;;;;;;5093877;28;20530;-53
2023/01/13 03:25:27;;;;;;;15.13;4.10;;;8.60;99.90;;;;;;5074339;28;20606;-53
2023/01/13 03:28:07;;;;;;;20.83;4.32;;;8.50;99.90;;;;;;5093652;28;20683;-53
2023/01/13 03:30:44;;;;;;;20.92;4.43;;;8.60;99.90;;;;;;5093598;28;20654;-53
2023/01/13 03:33:41;;;;;;;17.80;4.60;;;8.60;99.90;;;;;;5093801;28;20166;-53
2023/01/13 03:36:12;;;;;;;16.27;4.32;;;8.60;99.90;;;;;;5094580;28;20205;-50
2023/01/13 03:38:42;;;;;;;19.77;4.90;;;8.60;99.90;;;;;;5093654;28;20170;-55
2023/01/13 03:41:21;;;;;;;16.77;4.22;;;8.60;99.90;;;;;;5093766;28;20161;-50
2023/01/13 03:47:06;;;;;;;14.10;4.05;;;8.50;99.90;;;;;;5093755;28;20189;-56
2023/01/13 03:49:52;;;;;;;18.95;4.10;;;8.40;99.90;;;;;;5093480;28;20222;-53
2023/01/13 03:53:05;;;;;;;16.00;3.97;;;8.50;99.90;;;;;;5075897;28;20653;-50
2023/01/13 03:55:35;;;;;;;14.27;3.70;;;8.40;99.90;;;;;;5088669;28;20182;-53
2023/01/13 03:58:14;;;;;;;16.05;3.95;;;8.30;99.90;;;;;;5093530;28;20251;-51
2023/01/13 04:01:03;;;;;;;15.10;3.92;;;8.40;99.90;;;;;;5093330;28;20627;-53
2023/01/13 04:03:41;;;;;;;16.27;3.60;;;8.30;99.90;;;;;;5093135;28;20535;-60
2023/01/13 04:06:33;;;;;;;14.05;3.67;;;8.30;99.90;;;;;;5093203;28;20177;-51
2023/01/13 04:09:26;;;;;;;14.88;3.95;;;8.20;99.90;;;;;;5093386;28;20177;-52
2023/01/13 04:12:02;;;;;;;13.65;3.65;;;8.20;99.90;;;;;;5041716;28;20230;-50
2023/01/13 04:14:28;;;;;;;12.27;3.10;;;8.20;99.90;;;;;;5093067;28;20186;-50
2023/01/13 04:16:55;;;;;;;14.57;3.55;;;8.20;99.90;;;;;;5075243;28;20177;-51
2023/01/13 04:19:21;;;;;;;12.80;3.50;;;8.20;99.90;;;;;;5093306;28;20181;-50
2023/01/13 04:21:46;;;;;;;13.98;3.55;;;8.20;99.90;;;;;;5093189;28;20178;-51
2023/01/13 04:24:12;;;;;;;16.10;4.10;;;8.20;99.90;;;;;;5093029;28;20221;-50
2023/01/13 04:26:38;;;;;;;12.73;3.33;;;8.20;99.90;;;;;;5092955;28;20520;-51
2023/01/13 04:29:04;;;;;;;13.10;3.40;;;8.20;99.90;;;;;;5092907;28;20610;-53
2023/01/13 04:31:30;;;;;;;12.02;3.45;;;8.10;99.90;;;;;;5075068;28;20177;-53
2023/01/13 04:33:55;;;;;;;13.18;3.50;;;8.00;99.90;;;;;;5093132;28;20189;-54
2023/01/13 04:36:26;;;;;;;12.32;3.45;;;8.00;99.90;;;;;;5092930;28;20184;-51
2023/01/13 04:38:53;;;;;;;12.50;2.90;;;7.90;99.90;;;;;;5075607;28;20691;-50
2023/01/13 04:41:18;;;;;;;15.73;3.00;;;7.80;99.90;;;;;;5092872;28;20174;-50
2023/01/13 04:43:44;;;;;;;11.60;3.15;;;7.80;99.90;;;;;;5092869;28;20647;-50
2023/01/13 04:46:10;;;;;;;11.18;3.72;;;7.90;99.90;;;;;;5093024;28;20604;-51
2023/01/13 04:48:35;;;;;;;11.77;3.35;;;7.80;99.90;;;;;;5092802;28;20175;-52
2023/01/13 04:51:01;;;;;;;11.35;3.03;;;7.80;99.90;;;;;;5092924;28;20174;-50
2023/01/13 04:53:27;;;;;;;11.23;3.50;;;7.80;99.90;;;;;;5092842;28;20170;-51
2023/01/13 04:55:52;;;;;;;14.40;3.35;;;7.70;99.90;;;;;;5092625;28;20572;-53
2023/01/13 04:58:18;;;;;;;9.50;2.90;;;7.70;99.90;;;;;;5093065;28;20594;-53
2023/01/13 05:00:44;;;;;;;13.07;3.55;;;7.70;99.90;;;;;;5092873;28;20174;-52
2023/01/13 05:03:09;;;;;;;12.15;2.67;;;7.70;99.90;;;;;;5092862;28;20305;-52
2023/01/13 05:05:36;;;;;;;14.20;3.08;;;7.70;99.90;;;;;;5092560;28;20198;-50
2023/01/13 05:08:02;;;;;;;14.02;3.92;;;7.70;99.90;;;;;;5093969;28;20635;-50
2023/01/13 05:10:28;;;;;;;13.55;3.85;;;7.70;99.90;;;;;;5096192;28;20526;-53
2023/01/13 05:18:23;;;;;;;11.90;3.75;;;7.60;99.90;;;;;;5096548;28;20312;-50
2023/01/13 05:20:49;;;;;;;19.02;4.20;;;7.70;99.90;;;;;;5095930;28;20651;-51
2023/01/13 05:25:59;;;;;;;11.77;3.38;;;7.70;99.90;;;;;;5096246;28;20551;-50
2023/01/13 05:28:25;;;;;;;15.93;3.60;;;7.60;99.90;;;;;;5095889;28;20182;-53
2023/01/13 05:30:51;;;;;;;15.85;4.65;;;7.60;99.90;;;;;;5095932;28;20179;-50
2023/01/13 05:33:19;;;;;;;12.85;3.75;;;7.60;99.90;;;;;;5095746;28;20204;-54
2023/01/13 05:35:46;;;;;;;13.68;4.40;;;7.60;99.90;;;;;;5095849;28;20184;-53
2023/01/13 05:38:13;;;;;;;16.00;3.97;;;7.60;99.90;;;;;;5095898;28;20191;-52
2023/01/13 05:43:24;;;;;;;11.38;3.40;;;7.60;99.90;;;;;;5096048;28;20246;-53
2023/01/13 05:46:02;;;;;;;17.17;4.03;;;7.60;99.90;;;;;;5095527;28;20213;-50
2023/01/13 05:48:33;;;;;;;13.23;3.65;;;7.60;99.90;;;;;;5095629;28;20177;-50
2023/01/13 05:50:59;;;;;;;12.07;3.72;;;7.50;99.90;;;;;;5095378;28;20182;-50
2023/01/13 05:53:26;;;;;;;14.50;3.95;;;7.50;99.90;;;;;;5095552;28;20177;-52
2023/01/13 05:55:52;;;;;;;14.30;3.38;;;7.50;99.90;;;;;;5095348;28;20180;-53
2023/01/13 05:58:19;;;;;;;12.32;3.05;;;7.60;99.90;;;;;;5095068;28;20177;-57
2023/01/13 06:00:45;;;;;;;12.05;3.63;;;7.50;99.90;;;;;;5095116;28;20533;-55
2023/01/13 06:03:11;;;;;;;14.50;3.72;;;7.50;99.90;;;;;;5095678;28;20184;-53
2023/01/13 06:05:37;;;;;;;12.57;3.53;;;7.60;99.90;;;;;;5095044;28;20693;-53
2023/01/13 06:08:05;;;;;;;14.35;4.43;;;7.60;99.90;;;;;;5095252;28;20181;-53
2023/01/13 06:10:31;;;;;;;17.48;3.95;;;7.60;99.90;;;;;;5095154;28;20174;-54
2023/01/13 06:12:57;;;;;;;12.57;3.47;;;7.60;99.90;;;;;;5095458;28;20622;-54
2023/01/13 06:15:23;;;;;;;15.32;4.20;;;7.50;99.90;;;;;;5095170;28;20247;-52
2023/01/13 06:17:49;;;;;;;14.95;4.25;;;7.50;99.90;;;;;;5059980;28;20235;-54
2023/01/13 06:20:16;;;;;;;16.85;4.63;;;7.60;99.90;;;;;;5076745;28;20715;-53
2023/01/13 06:22:45;;;;;;;17.80;4.75;;;7.50;99.90;;;;;;5094823;28;20642;-54
2023/01/13 06:25:30;;;;;;;14.63;4.85;;;7.50;99.90;;;;;;5094768;28;20201;-53
2023/01/13 06:27:58;;;;;;;15.95;3.88;;;7.50;99.90;;;;;;5094803;28;20173;-53
2023/01/13 06:30:28;;;;;;;18.42;5.00;;;7.50;99.90;;;;;;5094682;28;20616;-54
2023/01/13 06:32:57;;;;;;;19.20;4.53;;;7.50;99.90;;;;;;5094687;28;20561;-53
2023/01/13 06:35:30;;;;;;;18.88;5.20;;;7.60;99.90;;;;;;5094711;28;20174;-54
2023/01/13 06:37:59;;;;;;;18.67;5.03;;;7.60;99.90;;;;;;5076170;28;20608;-54
2023/01/13 06:40:25;;;;;;;19.20;5.03;;;7.60;99.90;;;;;;5094738;28;20219;-52
2023/01/13 06:45:37;;;;;;;19.23;5.47;;;7.60;99.90;;;;;;5094373;28;20208;-53
2023/01/13 06:48:03;;;;;;;17.23;4.57;;;7.60;99.90;;;;;;5094302;28;20225;-53
2023/01/13 06:50:29;;;;;;;15.40;4.47;;;7.50;99.90;;;;;;5076018;28;20177;-51
2023/01/13 06:52:55;;;;;;;19.30;4.70;;;7.60;99.90;;;;;;5094468;28;20673;-52
2023/01/13 06:55:20;;;;;;;25.70;5.90;;;7.60;99.90;;;;;;5094460;28;20185;-55
2023/01/13 06:57:54;;;;;;;20.00;5.90;;;7.50;99.90;;;;;;5094185;28;20234;-54
2023/01/13 07:00:20;;;;;;;17.25;5.07;;;7.60;99.90;;;;;;5092942;28;20171;-53
2023/01/13 07:02:47;;;;;;;21.80;5.97;;;7.60;99.90;;;;;;5093969;28;20174;-54
2023/01/13 07:05:13;;;;;;;24.25;5.93;;;7.50;99.90;;;;;;5093678;28;20196;-54
2023/01/13 07:07:40;;;;;;;20.63;6.00;;;7.60;99.90;;;;;;5094140;28;20208;-54
2023/01/13 07:10:08;;;;;;;27.13;5.90;;;7.50;99.90;;;;;;5094060;28;20177;-54
2023/01/13 07:15:17;;;;;;;22.88;5.68;;;7.50;99.90;;;;;;5093462;28;20204;-53
2023/01/13 07:15:22;;;;;;;17.83;4.47;;;7.50;99.90;;;;;;5093785;28;20189;-55
2023/01/13 07:17:48;;;;;;;19.13;5.35;;;7.50;99.90;;;;;;5093719;28;20173;-55
2023/01/13 07:20:14;;;;;;;19.77;5.28;;;7.50;99.90;;;;;;5093970;28;20180;-55
2023/01/13 07:22:40;;;;;;;23.00;6.40;;;7.50;99.90;;;;;;5093896;28;20732;-52
2023/01/13 07:25:06;;;;;;;23.75;5.68;;;7.50;99.90;;;;;;5093756;28;20217;-54
2023/01/13 07:27:32;;;;;;;19.52;5.53;;;7.50;99.90;;;;;;5093603;28;20197;-54
2023/01/13 07:29:57;;;;;;;19.50;5.70;;;7.50;99.90;;;;;;5093269;28;20170;-53
2023/01/13 07:32:23;;;;;;;17.38;5.60;;;7.60;99.90;;;;;;5093386;28;20180;-53
2023/01/13 07:34:48;;;;;;;21.20;6.85;;;7.60;99.90;;;;;;5075394;28;20278;-54
2023/01/13 07:37:14;;;;;;;17.02;5.72;;;7.50;99.90;;;;;;5093586;28;20208;-53
2023/01/13 07:39:40;;;;;;;22.40;6.60;;;7.50;99.90;;;;;;5093356;28;20641;-52
2023/01/13 07:44:50;;;;;;;18.65;4.85;;;7.70;99.90;;;;;;5093767;28;20214;-53
2023/01/13 07:47:15;;;;;;;15.55;5.53;;;7.60;99.90;;;;;;5093524;28;20581;-53
2023/01/13 07:49:41;;;;;;;16.45;5.45;;;7.70;99.90;;;;;;5093770;28;20631;-50
2023/01/13 07:52:07;;;;;;;18.30;5.85;;;7.70;99.90;;;;;;5093494;28;20666;-52
2023/01/13 07:54:33;;;;;;;24.27;5.93;;;7.80;99.90;;;;;;5093251;28;20221;-52
2023/01/13 07:56:58;;;;;;;19.05;5.70;;;7.80;99.90;;;;;;5093369;28;20208;-52
2023/01/13 07:59:24;;;;;;;24.48;6.40;;;7.90;99.90;;;;;;5093093;28;20173;-53
2023/01/13 08:01:51;;;;;;;20.65;5.45;;;7.80;99.90;;;;;;5093176;28;20182;-53
2023/01/13 08:04:17;;;;;;;21.23;5.78;;;7.80;99.90;;;;;;5093261;28;20197;-52
2023/01/13 08:06:43;;;;;;;23.90;5.88;;;7.90;99.90;;;;;;5093294;28;20184;-53
2023/01/13 08:09:09;;;;;;;23.10;5.65;;;7.90;99.90;;;;;;5093331;28;20173;-54
2023/01/13 08:11:34;;;;;;;19.38;5.38;;;8.00;99.90;;;;;;5093113;28;20173;-52
2023/01/13 08:14:00;;;;;;;21.65;6.10;;;8.10;99.90;;;;;;5092980;28;20212;-51
2023/01/13 08:16:26;;;;;;;22.13;5.97;;;8.10;99.90;;;;;;5093297;28;20178;-53
2023/01/13 08:18:52;;;;;;;19.85;5.45;;;8.10;99.90;;;;;;5093258;28;20180;-53
2023/01/13 08:21:17;;;;;;;19.05;5.30;;;8.10;99.90;;;;;;5093257;28;20174;-54
2023/01/13 08:23:44;;;;;;;24.80;6.30;;;8.20;99.90;;;;;;5093017;28;20654;-54
2023/01/13 08:26:16;;;;;;;22.48;6.00;;;8.10;99.90;;;;;;5093014;28;20186;-52
2023/01/13 08:28:41;;;;;;;22.30;5.78;;;8.10;99.90;;;;;;5093230;28;20528;-53
2023/01/13 08:31:11;;;;;;;21.67;5.93;;;8.10;99.90;;;;;;5093044;28;20188;-54
2023/01/13 08:33:36;;;;;;;18.20;5.45;;;8.10;99.90;;;;;;5093144;28;20174;-54
2023/01/13 08:36:07;;;;;;;21.60;6.47;;;8.20;99.90;;;;;;5092969;28;20599;-51
2023/01/13 08:38:34;;;;;;;17.17;5.55;;;8.20;99.90;;;;;;5092987;28;20172;-53
2023/01/13 08:41:00;;;;;;;20.00;5.95;;;8.40;99.90;;;;;;5092844;28;20178;-55
2023/01/13 08:43:26;;;;;;;21.92;5.50;;;8.50;99.90;;;;;;5094923;28;20186;-53
2023/01/13 08:45:57;;;;;;;21.52;5.63;;;8.40;99.90;;;;;;5096810;28;20215;-53
2023/01/13 08:48:22;;;;;;;26.90;6.57;;;8.40;99.90;;;;;;5096704;28;20237;-53
2023/01/13 08:50:48;;;;;;;19.27;5.72;;;8.30;99.90;;;;;;5096686;28;20174;-54
2023/01/13 08:53:14;;;;;;;19.52;6.18;;;8.30;99.90;;;;;;5096541;28;20252;-54
2023/01/13 08:55:39;;;;;;;21.27;6.00;;;8.50;99.90;;;;;;5096692;28;20627;-51
2023/01/13 08:58:05;;;;;;;20.00;5.85;;;8.50;99.90;;;;;;5096713;28;20535;-53
2023/01/13 09:00:31;;;;;;;21.92;6.53;;;8.60;99.90;;;;;;5096726;28;20181;-51
2023/01/13 09:02:58;;;;;;;19.23;6.47;;;8.70;99.90;;;;;;5096439;28;20178;-54
2023/01/13 09:05:24;;;;;;;22.17;6.07;;;8.70;99.90;;;;;;5096280;28;20224;-54
2023/01/13 09:07:49;;;;;;;23.27;6.97;;;8.80;99.90;;;;;;5096623;28;20178;-53
2023/01/13 09:10:15;;;;;;;22.80;6.07;;;8.80;99.90;;;;;;5096166;28;20185;-53
2023/01/13 09:15:25;;;;;;;19.80;6.05;;;8.80;99.90;;;;;;5096493;28;20252;-54
2023/01/13 09:17:50;;;;;;;17.25;5.88;;;8.80;99.90;;;;;;5096089;28;20186;-52
2023/01/13 09:20:16;;;;;;;19.63;5.90;;;8.80;99.90;;;;;;5096067;28;20182;-54
2023/01/13 09:22:42;;;;;;;22.23;5.35;;;8.80;99.90;;;;;;5095900;28;20197;-53
2023/01/13 09:25:08;;;;;;;18.55;5.60;;;8.80;99.90;;;;;;5096104;28;20202;-56
2023/01/13 09:27:34;;;;;;;19.92;6.05;;;8.80;99.90;;;;;;5096105;28;20546;-51
2023/01/13 09:29:59;;;;;;;22.10;6.72;;;8.80;99.90;;;;;;5095839;28;20261;-52
2023/01/13 09:32:25;;;;;;;23.05;6.30;;;8.80;99.90;;;;;;5077750;28;20212;-54
2023/01/13 09:34:59;;;;;;;27.20;6.85;;;8.90;99.90;;;;;;5077723;28;20204;-54
2023/01/13 09:37:31;;;;;;;27.02;8.02;;;9.00;99.90;;;;;;5095949;28;20256;-54
2023/01/13 09:39:56;;;;;;;22.58;5.95;;;9.10;99.90;;;;;;5096114;28;20249;-52
2023/01/13 09:45:39;;;;;;;22.98;5.93;;;9.30;99.90;;;;;;5095644;28;20276;-54
2023/01/13 09:48:26;;;;;;;24.05;6.15;;;9.50;99.90;;;;;;5095448;28;20627;-52
2023/01/13 09:51:19;;;;;;;24.30;6.40;;;9.60;99.90;;;;;;5095652;28;20195;-54
2023/01/13 09:54:01;;;;;;;22.40;7.00;;;9.70;99.90;;;;;;5094920;28;20166;-54
2023/01/13 09:56:27;;;;;;;19.45;6.50;;;9.70;99.90;;;;;;5095515;28;20185;-54
2023/01/13 09:58:53;;;;;;;20.20;5.70;;;9.70;99.90;;;;;;5095420;28;20182;-54
2023/01/13 10:01:44;;;;;;;24.58;6.78;;;9.70;99.90;;;;;;5095423;28;20174;-54
2023/01/13 10:04:13;;;;;;;21.42;6.10;;;9.90;99.90;;;;;;5095148;28;20206;-53
2023/01/13 10:06:43;;;;;;;19.00;6.35;;;9.80;99.90;;;;;;5095198;28;20174;-53
2023/01/13 10:09:32;;;;;;;21.50;6.13;;;9.90;99.90;;;;;;5095464;28;20180;-54
2023/01/13 10:14:54;;;;;;;21.17;6.13;;;9.70;99.90;;;;;;5095290;28;20224;-53
2023/01/13 10:17:46;;;;;;;20.60;5.95;;;9.70;99.90;;;;;;5095038;28;20637;-54
2023/01/13 10:20:25;;;;;;;20.35;5.80;;;9.40;99.90;;;;;;5095255;28;20166;-54
2023/01/13 10:23:40;;;;;;;18.92;5.72;;;9.30;99.90;;;;;;5095050;28;20222;-54
2023/01/13 10:26:25;;;;;;;19.60;4.82;;;9.30;99.90;;;;;;5056224;28;20577;-53
2023/01/13 10:28:55;;;;;;;17.75;5.45;;;9.30;99.90;;;;;;5094975;28;20238;-54
2023/01/13 10:31:22;;;;;;;17.20;4.80;;;9.40;99.90;;;;;;5094516;28;20177;-54
2023/01/13 10:33:56;;;;;;;17.83;4.80;;;9.40;99.90;;;;;;5094792;28;20561;-54
2023/01/13 10:36:21;;;;;;;20.67;5.20;;;9.40;99.90;;;;;;5094642;28;20539;-54
2023/01/13 10:38:49;;;;;;;16.90;4.93;;;9.40;99.90;;;;;;5094401;28;20174;-52
2023/01/13 10:41:14;;;;;;;18.73;5.03;;;9.40;99.90;;;;;;5094645;28;20175;-52
2023/01/13 10:44:04;;;;;;;17.92;4.70;;;9.40;99.90;;;;;;5094686;28;20192;-54
2023/01/13 10:46:48;;;;;;;16.17;5.28;;;9.50;99.90;;;;;;5081911;28;20202;-54
2023/01/13 10:49:35;;;;;;;15.05;4.03;;;9.50;99.90;;;;;;5094734;28;20173;-54
2023/01/13 10:52:01;;;;;;;13.93;4.93;;;9.40;99.90;;;;;;5094301;28;20177;-55
2023/01/13 10:54:27;;;;;;;17.23;4.70;;;9.50;99.90;;;;;;5094091;28;20194;-53
2023/01/13 10:57:23;;;;;;;15.68;4.20;;;9.50;99.90;;;;;;5094395;28;20181;-54
2023/01/13 10:59:52;;;;;;;11.05;4.05;;;9.60;99.90;;;;;;5094079;28;20260;-54
2023/01/13 11:02:34;;;;;;;12.77;4.50;;;9.80;99.90;;;;;;5094071;28;20166;-52
2023/01/13 11:05:23;;;;;;;14.30;3.95;;;9.70;99.90;;;;;;5093531;28;20213;-55
2023/01/13 11:07:53;;;;;;;14.40;4.10;;;9.80;99.90;;;;;;5094206;28;20631;-52
2023/01/13 11:10:28;;;;;;;16.75;4.53;;;9.90;99.90;;;;;;5094146;28;20166;-54
2023/01/13 11:13:10;;;;;;;12.90;4.30;;;9.90;99.90;;;;;;5094061;28;20242;-53
2023/01/13 11:15:45;;;;;;;10.82;3.50;;;9.90;99.90;;;;;;5094422;28;20193;-52
2023/01/13 11:18:24;;;;;;;14.05;4.70;;;10.00;99.90;;;;;;5094002;28;20201;-54
2023/01/13 11:20:51;;;;;;;14.27;4.47;;;10.10;99.90;;;;;;5094134;28;20170;-54
2023/01/13 11:23:26;;;;;;;16.85;4.55;;;10.20;99.90;;;;;;5075653;28;20686;-56
2023/01/13 11:26:00;;;;;;;12.80;4.15;;;10.20;99.90;;;;;;5075592;28;20205;-54
2023/01/13 11:28:45;;;;;;;12.48;4.05;;;10.10;99.90;;;;;;5093758;28;20216;-54
2023/01/13 11:31:32;;;;;;;11.52;4.32;;;10.10;99.90;;;;;;5093333;28;20585;-54
2023/01/13 11:34:28;;;;;;;12.70;4.13;;;10.20;99.90;;;;;;5093137;28;20177;-54
2023/01/13 11:36:57;;;;;;;13.23;3.90;;;10.20;99.90;;;;;;5075021;28;20661;-54
2023/01/13 11:40:00;;;;;;;10.07;3.92;;;10.20;99.90;;;;;;5093166;28;20257;-54
2023/01/13 11:42:31;;;;;;;15.25;5.03;;;10.30;99.90;;;;;;5093144;28;20165;-54
2023/01/13 11:45:15;;;;;;;14.30;4.13;;;10.30;99.90;;;;;;5093344;28;20205;-54
2023/01/13 11:47:45;;;;;;;12.80;3.88;;;10.20;99.90;;;;;;5093190;28;20172;-54
2023/01/13 11:50:36;;;;;;;14.70;4.43;;;10.20;99.90;;;;;;5092965;28;20568;-52
2023/01/13 11:53:23;;;;;;;13.25;4.18;;;10.20;99.90;;;;;;5093216;28;20178;-54
2023/01/13 11:56:08;;;;;;;12.63;4.10;;;10.20;99.90;;;;;;5092906;28;20224;-54
2023/01/13 11:58:45;;;;;;;14.20;4.10;;;10.10;99.90;;;;;;5092931;28;20607;-54
2023/01/13 12:01:14;;;;;;;14.43;4.43;;;10.10;99.90;;;;;;5093271;28;20158;-54
2023/01/13 12:03:48;;;;;;;14.02;4.03;;;10.30;99.90;;;;;;5092849;28;20601;-54
2023/01/13 12:06:37;;;;;;;12.18;3.78;;;10.40;99.90;;;;;;5092711;28;20252;-54
2023/01/13 12:09:22;;;;;;;14.52;3.95;;;10.60;99.90;;;;;;5092753;28;20178;-54
2023/01/13 12:12:26;;;;;;;11.52;4.47;;;10.80;99.90;;;;;;5092921;28;20213;-54
2023/01/13 12:15:19;;;;;;;14.73;3.95;;;10.80;99.90;;;;;;5072215;28;20205;-54
2023/01/13 12:18:03;;;;;;;14.77;3.97;;;11.00;99.90;;;;;;5095200;28;20226;-56
2023/01/13 12:21:26;;;;;;;11.77;3.95;;;10.90;99.90;;;;;;5097059;28;20166;-54
2023/01/13 12:24:19;;;;;;;14.32;4.05;;;11.00;99.90;;;;;;4978302;28;20177;-54
2023/01/13 12:26:57;;;;;;;11.63;3.72;;;11.00;99.90;;;;;;4994894;28;20183;-56
2023/01/13 12:29:34;;;;;;;15.20;4.38;;;10.90;99.90;;;;;;5069568;28;20668;-55
2023/01/13 12:32:13;;;;;;;14.77;4.40;;;10.90;99.90;;;;;;5096399;28;20499;-53
2023/01/13 12:35:08;;;;;;;13.65;3.80;;;10.80;99.90;;;;;;5096766;28;20526;-53
2023/01/13 12:37:43;;;;;;;14.68;3.85;;;10.80;99.90;;;;;;5096506;28;20169;-54
2023/01/13 12:40:41;;;;;;;12.20;4.07;;;10.70;99.90;;;;;;5096453;28;20173;-55
2023/01/13 12:46:23;;;;;;;13.45;4.03;;;10.80;99.90;;;;;;5096249;28;20216;-54
2023/01/13 12:48:55;;;;;;;13.50;4.03;;;10.70;99.90;;;;;;5096057;28;20174;-54
2023/01/13 12:51:32;;;;;;;13.63;3.72;;;10.80;99.90;;;;;;5096162;28;20623;-54
2023/01/13 12:54:00;;;;;;;12.52;3.67;;;10.90;99.90;;;;;;5096118;28;20174;-54
2023/01/13 12:56:43;;;;;;;14.75;3.90;;;10.90;99.90;;;;;;5096127;28;20216;-54
2023/01/13 12:59:18;;;;;;;14.52;4.05;;;10.90;99.90;;;;;;5095947;28;20174;-54
2023/01/13 13:01:49;;;;;;;16.65;3.83;;;10.90;99.90;;;;;;5077940;28;20507;-55
2023/01/13 13:04:39;;;;;;;15.75;4.25;;;10.90;99.90;;;;;;5096219;28;20197;-55
2023/01/13 13:07:13;;;;;;;17.83;4.63;;;10.80;99.90;;;;;;5095756;28;20190;-54
2023/01/13 13:09:48;;;;;;;12.73;3.90;;;10.60;99.90;;;;;;5095727;28;20636;-54
2023/01/13 13:15:25;;;;;;;15.50;3.78;;;10.60;99.90;;;;;;5095988;28;20597;-55
2023/01/13 13:18:02;;;;;;;15.25;4.47;;;10.50;99.90;;;;;;5095674;28;20166;-54
2023/01/13 13:20:58;;;;;;;18.27;4.53;;;10.50;99.90;;;;;;5095876;28;20176;-55
2023/01/13 13:23:28;;;;;;;16.00;4.10;;;10.50;99.90;;;;;;5095631;28;20253;-54
2023/01/13 13:26:23;;;;;;;13.15;4.65;;;10.50;99.90;;;;;;5095493;28;20209;-54
2023/01/13 13:29:04;;;;;;;14.50;4.28;;;10.70;99.90;;;;;;5058517;28;20256;-54
2023/01/13 13:31:56;;;;;;;13.52;4.47;;;10.60;99.90;;;;;;5095368;28;20706;-54
2023/01/13 13:35:02;;;;;;;15.02;4.60;;;10.70;99.90;;;;;;5090418;28;20601;-55
2023/01/13 13:46:46;;;;;;;16.60;4.80;;;10.80;99.90;;;;;;5095076;28;20946;-54
2023/01/13 13:49:20;;;;;;;12.95;4.25;;;10.70;99.90;;;;;;5080952;28;20186;-56
2023/01/13 13:52:17;;;;;;;16.63;4.13;;;10.60;99.90;;;;;;5095413;28;20173;-55
2023/01/13 13:54:47;;;;;;;13.98;3.85;;;10.60;99.90;;;;;;5095071;28;20534;-55
2023/01/13 13:57:31;;;;;;;13.30;3.85;;;10.70;99.90;;;;;;5094847;28;20227;-56
2023/01/13 13:59:58;;;;;;;14.95;4.30;;;10.80;99.90;;;;;;5094743;28;20657;-56
2023/01/13 14:02:29;;;;;;;13.05;4.13;;;10.90;99.90;;;;;;5095131;28;20173;-57
2023/01/13 14:05:20;;;;;;;16.08;4.60;;;10.90;99.90;;;;;;5094831;28;20194;-55
2023/01/13 14:07:49;;;;;;;13.80;4.18;;;10.90;99.90;;;;;;5094785;28;20259;-54
2023/01/13 14:10:34;;;;;;;12.20;3.78;;;10.90;99.90;;;;;;5094497;28;20181;-55